sensor_id;sensor_type;location;lat;lon;timestamp;pressure;altitude;pressure_sealevel;temperature;humidity
54022;BME280;39936;51.058;17.220;2022-08-11T00:00:44;102545.92;;;13.76;92.80
54022;BME280;39936;51.058;17.220;2022-08-11T00:08:20;102544.71;;;13.59;93.82
54022;BME280;39936;51.058;17.220;2022-08-11T00:11:50;102546.86;;;13.55;93.71
54022;BME280;39936;51.058;17.220;2022-08-11T00:15:27;102547.31;;;13.48;94.09
54022;BME280;39936;51.058;17.220;2022-08-11T00:18:59;102548.89;;;13.38;95.09
54022;BME280;39936;51.058;17.220;2022-08-11T00:22:32;102550.46;;;13.31;95.33
54022;BME280;39936;51.058;17.220;2022-08-11T00:26:15;102554.19;;;13.23;95.77
54022;BME280;39936;51.058;17.220;2022-08-11T00:29:54;102552.10;;;13.20;96.06
54022;BME280;39936;51.058;17.220;2022-08-11T00:33:08;102551.35;;;13.18;96.35
54022;BME280;39936;51.058;17.220;2022-08-11T00:37:09;102546.80;;;13.17;97.38
54022;BME280;39936;51.058;17.220;2022-08-11T01:19:15;102548.81;;;12.26;98.70
54022;BME280;39936;51.058;17.220;2022-08-11T01:49:47;102548.26;;;11.73;100.00
54022;BME280;39936;51.058;17.220;2022-08-11T02:05:05;102559.40;;;11.27;100.00
54022;BME280;39936;51.058;17.220;2022-08-11T02:08:48;102558.58;;;11.24;100.00
54022;BME280;39936;51.058;17.220;2022-08-11T02:16:28;102553.10;;;11.21;100.00
54022;BME280;39936;51.058;17.220;2022-08-11T02:20:36;102550.30;;;11.10;100.00
54022;BME280;39936;51.058;17.220;2022-08-11T02:24:30;102548.39;;;11.00;100.00
54022;BME280;39936;51.058;17.220;2022-08-11T02:27:54;102555.79;;;10.90;100.00
54022;BME280;39936;51.058;17.220;2022-08-11T02:35:46;102556.68;;;10.89;100.00
54022;BME280;39936;51.058;17.220;2022-08-11T02:39:14;102558.42;;;10.84;100.00
54022;BME280;39936;51.058;17.220;2022-08-11T02:50:24;102555.32;;;10.77;100.00
54022;BME280;39936;51.058;17.220;2022-08-11T02:54:06;102552.08;;;10.77;100.00
54022;BME280;39936;51.058;17.220;2022-08-11T03:12:24;102564.32;;;10.38;100.00
54022;BME280;39936;51.058;17.220;2022-08-11T03:16:24;102569.96;;;10.33;100.00
54022;BME280;39936;51.058;17.220;2022-08-11T03:28:05;102569.88;;;10.47;100.00
54022;BME280;39936;51.058;17.220;2022-08-11T03:35:02;102574.55;;;10.43;100.00
54022;BME280;39936;51.058;17.220;2022-08-11T03:43:01;102572.70;;;10.46;100.00
54022;BME280;39936;51.058;17.220;2022-08-11T04:53:25;102483.16;;;22.16;56.08
54022;BME280;39936;51.058;17.220;2022-08-11T04:57:27;102491.91;;;20.97;60.25
54022;BME280;39936;51.058;17.220;2022-08-11T05:01:17;102481.91;;;20.24;62.45
54022;BME280;39936;51.058;17.220;2022-08-11T05:09:53;102481.32;;;19.65;64.95
54022;BME280;39936;51.058;17.220;2022-08-11T05:13:48;102501.55;;;19.47;66.73
54022;BME280;39936;51.058;17.220;2022-08-11T05:21:44;102515.53;;;18.64;63.76
54022;BME280;39936;51.058;17.220;2022-08-11T05:25:10;102517.42;;;18.05;68.92
54022;BME280;39936;51.058;17.220;2022-08-11T05:33:04;102531.98;;;18.47;70.80
54022;BME280;39936;51.058;17.220;2022-08-11T05:37:06;102531.30;;;18.98;68.30
54022;BME280;39936;51.058;17.220;2022-08-11T05:40:25;102530.86;;;19.10;66.09
54022;BME280;39936;51.058;17.220;2022-08-11T05:44:22;102533.69;;;18.95;65.45
54022;BME280;39936;51.058;17.220;2022-08-11T05:48:18;102538.98;;;18.79;67.16
54022;BME280;39936;51.058;17.220;2022-08-11T05:52:16;102544.34;;;18.88;67.48
54022;BME280;39936;51.058;17.220;2022-08-11T05:56:21;102542.13;;;19.07;66.20
54022;BME280;39936;51.058;17.220;2022-08-11T05:59:59;102543.16;;;19.14;66.00
54022;BME280;39936;51.058;17.220;2022-08-11T06:03:33;102541.93;;;19.10;66.61
54022;BME280;39936;51.058;17.220;2022-08-11T06:07:08;102549.11;;;19.24;65.23
54022;BME280;39936;51.058;17.220;2022-08-11T06:10:32;102552.71;;;19.15;65.96
54022;BME280;39936;51.058;17.220;2022-08-11T06:13:50;102551.76;;;19.05;66.34
54022;BME280;39936;51.058;17.220;2022-08-11T06:17:35;102555.09;;;19.19;66.34
54022;BME280;39936;51.058;17.220;2022-08-11T06:20:56;102554.48;;;18.95;67.70
54022;BME280;39936;51.058;17.220;2022-08-11T06:24:50;102558.79;;;19.12;66.61
54022;BME280;39936;51.058;17.220;2022-08-11T06:28:05;102557.99;;;19.53;67.18
54022;BME280;39936;51.058;17.220;2022-08-11T06:31:21;102554.32;;;19.63;64.79
54022;BME280;39936;51.058;17.220;2022-08-11T06:49:20;102545.77;;;19.36;67.39
54022;BME280;39936;51.058;17.220;2022-08-11T06:52:46;102545.08;;;19.28;66.45
54022;BME280;39936;51.058;17.220;2022-08-11T06:55:59;102527.83;;;19.56;65.63
54022;BME280;39936;51.058;17.220;2022-08-11T06:59:56;102530.06;;;19.82;67.43
54022;BME280;39936;51.058;17.220;2022-08-11T07:03:36;102520.12;;;20.15;63.73
54022;BME280;39936;51.058;17.220;2022-08-11T07:06:56;102517.03;;;20.32;62.83
54022;BME280;39936;51.058;17.220;2022-08-11T07:14:56;102514.95;;;21.18;61.33
54022;BME280;39936;51.058;17.220;2022-08-11T07:18:34;102508.57;;;21.68;60.99
54022;BME280;39936;51.058;17.220;2022-08-11T07:22:45;102501.26;;;22.08;58.54
54022;BME280;39936;51.058;17.220;2022-08-11T07:26:25;102501.00;;;22.34;57.56
54022;BME280;39936;51.058;17.220;2022-08-11T07:30:09;102498.24;;;21.96;58.37
54022;BME280;39936;51.058;17.220;2022-08-11T07:34:21;102495.66;;;22.05;58.04
54022;BME280;39936;51.058;17.220;2022-08-11T07:37:35;102494.64;;;21.87;57.09
54022;BME280;39936;51.058;17.220;2022-08-11T07:41:21;102491.92;;;22.03;57.15
54022;BME280;39936;51.058;17.220;2022-08-11T07:44:52;102492.45;;;22.39;56.51
54022;BME280;39936;51.058;17.220;2022-08-11T07:48:16;102495.98;;;22.12;57.10
54022;BME280;39936;51.058;17.220;2022-08-11T07:51:43;102499.34;;;21.72;56.05
54022;BME280;39936;51.058;17.220;2022-08-11T07:55:35;102497.63;;;21.62;57.89
54022;BME280;39936;51.058;17.220;2022-08-11T07:59:18;102493.66;;;21.78;55.06
54022;BME280;39936;51.058;17.220;2022-08-11T08:02:43;102487.20;;;22.14;56.86
54022;BME280;39936;51.058;17.220;2022-08-11T08:06:07;102489.20;;;22.35;55.86
54022;BME280;39936;51.058;17.220;2022-08-11T08:09:48;102491.42;;;22.21;53.05
54022;BME280;39936;51.058;17.220;2022-08-11T08:13:32;102490.64;;;22.44;54.19
54022;BME280;39936;51.058;17.220;2022-08-11T08:16:56;102484.05;;;22.69;54.75
54022;BME280;39936;51.058;17.220;2022-08-11T09:39:26;102435.84;;;23.27;45.88
54022;BME280;39936;51.058;17.220;2022-08-11T09:42:54;102437.48;;;23.61;45.15
54022;BME280;39936;51.058;17.220;2022-08-11T09:46:26;102437.29;;;23.53;44.59
54022;BME280;39936;51.058;17.220;2022-08-11T09:50:10;102433.97;;;23.76;42.83
54022;BME280;39936;51.058;17.220;2022-08-11T09:53:59;102431.60;;;23.78;43.28
54022;BME280;39936;51.058;17.220;2022-08-11T09:57:18;102423.14;;;23.81;40.90
54022;BME280;39936;51.058;17.220;2022-08-11T10:00:42;102421.62;;;23.59;41.82
54022;BME280;39936;51.058;17.220;2022-08-11T10:04:38;102405.12;;;23.79;42.33
54022;BME280;39936;51.058;17.220;2022-08-11T10:07:52;102404.06;;;23.98;40.89
54022;BME280;39936;51.058;17.220;2022-08-11T10:11:27;102399.07;;;24.01;42.65
54022;BME280;39936;51.058;17.220;2022-08-11T10:14:57;102397.77;;;23.97;40.65
54022;BME280;39936;51.058;17.220;2022-08-11T10:19:04;102381.97;;;24.11;41.04
54022;BME280;39936;51.058;17.220;2022-08-11T10:22:27;102378.92;;;24.47;38.91
54022;BME280;39936;51.058;17.220;2022-08-11T10:25:53;102378.88;;;24.64;37.75
54022;BME280;39936;51.058;17.220;2022-08-11T10:29:40;102377.44;;;24.42;36.59
54022;BME280;39936;51.058;17.220;2022-08-11T10:33:09;102371.46;;;24.26;38.74
54022;BME280;39936;51.058;17.220;2022-08-11T10:37:28;102366.40;;;24.34;38.28
54022;BME280;39936;51.058;17.220;2022-08-11T10:40:53;102356.71;;;24.65;37.70
54022;BME280;39936;51.058;17.220;2022-08-11T10:44:43;102360.77;;;24.94;37.13
54022;BME280;39936;51.058;17.220;2022-08-11T10:48:35;102356.86;;;24.98;37.19
54022;BME280;39936;51.058;17.220;2022-08-11T10:52:10;102356.80;;;24.92;37.18
54022;BME280;39936;51.058;17.220;2022-08-11T10:55:35;102358.91;;;24.80;36.65
54022;BME280;39936;51.058;17.220;2022-08-11T10:59:15;102350.10;;;24.95;37.52
54022;BME280;39936;51.058;17.220;2022-08-11T11:03:16;102363.09;;;24.28;36.17
54022;BME280;39936;51.058;17.220;2022-08-11T11:07:05;102366.25;;;23.76;37.24
54022;BME280;39936;51.058;17.220;2022-08-11T11:10:28;102364.48;;;23.66;38.49
54022;BME280;39936;51.058;17.220;2022-08-11T11:18:44;102352.41;;;24.40;37.52
54022;BME280;39936;51.058;17.220;2022-08-11T11:22:54;102343.24;;;24.76;39.49
54022;BME280;39936;51.058;17.220;2022-08-11T11:34:22;102330.00;;;25.08;38.19
54022;BME280;39936;51.058;17.220;2022-08-11T11:37:47;102327.52;;;24.83;37.57
54022;BME280;39936;51.058;17.220;2022-08-11T11:41:20;102330.24;;;24.96;39.69
54022;BME280;39936;51.058;17.220;2022-08-11T11:44:55;102325.41;;;24.74;37.83
54022;BME280;39936;51.058;17.220;2022-08-11T11:48:05;102320.41;;;24.59;36.86
54022;BME280;39936;51.058;17.220;2022-08-11T11:51:30;102311.43;;;24.60;40.21
54022;BME280;39936;51.058;17.220;2022-08-11T12:13:01;102288.39;;;24.66;35.60
54022;BME280;39936;51.058;17.220;2022-08-11T12:16:45;102284.10;;;24.57;37.33
54022;BME280;39936;51.058;17.220;2022-08-11T12:20:23;102277.75;;;24.52;38.09
54022;BME280;39936;51.058;17.220;2022-08-11T12:23:43;102273.07;;;24.87;36.99
54022;BME280;39936;51.058;17.220;2022-08-11T12:27:56;102272.41;;;25.19;37.89
54022;BME280;39936;51.058;17.220;2022-08-11T12:31:44;102283.49;;;24.67;39.95
54022;BME280;39936;51.058;17.220;2022-08-11T12:42:10;102284.09;;;23.73;41.09
54022;BME280;39936;51.058;17.220;2022-08-11T12:45:37;102273.54;;;23.60;39.95
54022;BME280;39936;51.058;17.220;2022-08-11T12:49:45;102265.23;;;23.82;39.17
54022;BME280;39936;51.058;17.220;2022-08-11T12:53:27;102257.15;;;24.27;38.04
54022;BME280;39936;51.058;17.220;2022-08-11T12:56:44;102252.04;;;24.66;37.54
54022;BME280;39936;51.058;17.220;2022-08-11T13:01:39;102236.64;;;24.77;36.99
54022;BME280;39936;51.058;17.220;2022-08-11T13:20:20;102221.91;;;25.14;35.55
54022;BME280;39936;51.058;17.220;2022-08-11T13:23:53;102216.03;;;25.30;39.73
54022;BME280;39936;51.058;17.220;2022-08-11T13:27:10;102218.08;;;25.27;37.49
54022;BME280;39936;51.058;17.220;2022-08-11T13:30:41;102196.41;;;25.18;36.69
54022;BME280;39936;51.058;17.220;2022-08-11T13:34:09;102219.88;;;24.74;37.03
54022;BME280;39936;51.058;17.220;2022-08-11T13:38:12;102222.70;;;24.40;37.41
54022;BME280;39936;51.058;17.220;2022-08-11T13:41:22;102219.34;;;24.13;38.16
54022;BME280;39936;51.058;17.220;2022-08-11T13:44:46;102216.77;;;24.06;38.09
54022;BME280;39936;51.058;17.220;2022-08-11T13:47:59;102210.20;;;24.08;39.04
54022;BME280;39936;51.058;17.220;2022-08-11T13:51:15;102204.86;;;24.05;38.07
54022;BME280;39936;51.058;17.220;2022-08-11T13:54:54;102191.68;;;24.26;39.57
54022;BME280;39936;51.058;17.220;2022-08-11T13:58:09;102180.59;;;24.62;36.82
54022;BME280;39936;51.058;17.220;2022-08-11T14:01:29;102173.84;;;24.90;37.06
54022;BME280;39936;51.058;17.220;2022-08-11T14:09:29;102170.18;;;25.17;35.47
54022;BME280;39936;51.058;17.220;2022-08-11T14:13:16;102165.59;;;25.16;36.52
54022;BME280;39936;51.058;17.220;2022-08-11T14:17:23;102153.33;;;25.68;36.41
54022;BME280;39936;51.058;17.220;2022-08-11T14:21:01;102163.81;;;25.74;35.36
54022;BME280;39936;51.058;17.220;2022-08-11T14:24:41;102166.76;;;25.27;36.63
54022;BME280;39936;51.058;17.220;2022-08-11T14:28:27;102160.32;;;25.16;36.75
54022;BME280;39936;51.058;17.220;2022-08-11T14:31:44;102159.97;;;25.17;37.88
54022;BME280;39936;51.058;17.220;2022-08-11T14:35:22;102155.70;;;25.10;36.99
54022;BME280;39936;51.058;17.220;2022-08-11T14:38:34;102154.19;;;25.13;34.53
54022;BME280;39936;51.058;17.220;2022-08-11T14:42:07;102149.03;;;25.11;35.23
54022;BME280;39936;51.058;17.220;2022-08-11T14:46:00;102143.52;;;25.31;35.45
54022;BME280;39936;51.058;17.220;2022-08-11T14:49:43;102141.81;;;25.29;35.70
54022;BME280;39936;51.058;17.220;2022-08-11T14:53:32;102152.30;;;25.44;37.48
54022;BME280;39936;51.058;17.220;2022-08-11T14:57:47;102155.30;;;25.33;36.45
54022;BME280;39936;51.058;17.220;2022-08-11T15:01:34;102158.87;;;25.18;35.99
54022;BME280;39936;51.058;17.220;2022-08-11T15:05:26;102154.40;;;24.82;36.33
54022;BME280;39936;51.058;17.220;2022-08-11T15:08:38;102147.93;;;24.91;35.65
54022;BME280;39936;51.058;17.220;2022-08-11T15:12:17;102145.30;;;25.15;35.60
54022;BME280;39936;51.058;17.220;2022-08-11T15:15:31;102137.02;;;25.28;34.67
54022;BME280;39936;51.058;17.220;2022-08-11T15:18:55;102129.65;;;25.14;35.56
54022;BME280;39936;51.058;17.220;2022-08-11T15:22:54;102138.16;;;25.24;35.87
54022;BME280;39936;51.058;17.220;2022-08-11T15:26:22;102141.29;;;25.40;35.95
54022;BME280;39936;51.058;17.220;2022-08-11T15:30:21;102143.27;;;25.28;35.12
54022;BME280;39936;51.058;17.220;2022-08-11T15:43:45;102142.97;;;24.80;35.46
54022;BME280;39936;51.058;17.220;2022-08-11T15:47:24;102141.84;;;24.92;36.34
54022;BME280;39936;51.058;17.220;2022-08-11T15:51:10;102131.77;;;24.96;34.97
54022;BME280;39936;51.058;17.220;2022-08-11T15:54:28;102131.08;;;25.03;35.91
54022;BME280;39936;51.058;17.220;2022-08-11T15:58:00;102136.02;;;24.98;36.10
54022;BME280;39936;51.058;17.220;2022-08-11T16:01:24;102139.95;;;24.88;35.33
54022;BME280;39936;51.058;17.220;2022-08-11T16:04:49;102134.43;;;24.88;36.46
54022;BME280;39936;51.058;17.220;2022-08-11T16:08:23;102137.52;;;24.90;35.30
54022;BME280;39936;51.058;17.220;2022-08-11T16:19:56;102148.38;;;24.82;35.51
54022;BME280;39936;51.058;17.220;2022-08-11T16:23:08;102142.56;;;24.75;35.51
54022;BME280;39936;51.058;17.220;2022-08-11T16:26:34;102138.37;;;24.75;36.30
54022;BME280;39936;51.058;17.220;2022-08-11T16:30:15;102144.62;;;24.70;36.76
54022;BME280;39936;51.058;17.220;2022-08-11T16:33:26;102140.51;;;24.37;36.41
54022;BME280;39936;51.058;17.220;2022-08-11T16:37:51;102147.02;;;24.09;36.39
54022;BME280;39936;51.058;17.220;2022-08-11T16:41:46;102145.19;;;23.90;36.65
54022;BME280;39936;51.058;17.220;2022-08-11T16:45:21;102156.46;;;23.82;36.76
54022;BME280;39936;51.058;17.220;2022-08-11T16:48:51;102185.28;;;23.80;37.84
54022;BME280;39936;51.058;17.220;2022-08-11T16:52:14;102189.11;;;23.18;44.46
54022;BME280;39936;51.058;17.220;2022-08-11T16:55:24;102200.79;;;22.38;47.70
54022;BME280;39936;51.058;17.220;2022-08-11T16:59:06;102196.27;;;21.95;49.10
54022;BME280;39936;51.058;17.220;2022-08-11T17:02:51;102207.79;;;21.59;50.84
54022;BME280;39936;51.058;17.220;2022-08-11T17:09:22;102208.75;;;21.39;51.15
54022;BME280;39936;51.058;17.220;2022-08-11T17:22:31;102211.72;;;20.90;53.29
54022;BME280;39936;51.058;17.220;2022-08-11T17:25:52;102208.64;;;20.87;53.59
54022;BME280;39936;51.058;17.220;2022-08-11T17:33:30;102206.36;;;20.87;54.05
54022;BME280;39936;51.058;17.220;2022-08-11T17:37:22;102202.22;;;20.99;53.76
54022;BME280;39936;51.058;17.220;2022-08-11T17:40:52;102208.05;;;21.13;53.27
54022;BME280;39936;51.058;17.220;2022-08-11T17:45:43;102213.35;;;21.20;53.70
54022;BME280;39936;51.058;17.220;2022-08-11T17:50:43;102209.48;;;21.24;53.30
54022;BME280;39936;51.058;17.220;2022-08-11T17:55:02;102205.44;;;21.22;53.65
54022;BME280;39936;51.058;17.220;2022-08-11T17:58:40;102204.77;;;21.12;53.55
54022;BME280;39936;51.058;17.220;2022-08-11T18:02:45;102207.09;;;21.06;54.15
54022;BME280;39936;51.058;17.220;2022-08-11T18:06:09;102206.58;;;21.05;54.16
54022;BME280;39936;51.058;17.220;2022-08-11T18:09:52;102206.97;;;21.03;54.36
54022;BME280;39936;51.058;17.220;2022-08-11T18:17:29;102206.84;;;20.77;55.16
54022;BME280;39936;51.058;17.220;2022-08-11T18:21:27;102215.40;;;20.62;55.46
54022;BME280;39936;51.058;17.220;2022-08-11T18:25:34;102221.91;;;20.46;55.97
54022;BME280;39936;51.058;17.220;2022-08-11T18:29:11;102232.96;;;20.36;56.32
54022;BME280;39936;51.058;17.220;2022-08-11T18:33:32;102230.68;;;20.27;56.58
54022;BME280;39936;51.058;17.220;2022-08-11T18:37:26;102238.03;;;20.20;56.90
54022;BME280;39936;51.058;17.220;2022-08-11T18:41:28;102241.12;;;20.12;57.84
54022;BME280;39936;51.058;17.220;2022-08-11T18:45:22;102238.40;;;20.00;57.70
54022;BME280;39936;51.058;17.220;2022-08-11T18:49:30;102245.45;;;20.00;58.47
54022;BME280;39936;51.058;17.220;2022-08-11T18:53:51;102244.00;;;19.99;58.11
54022;BME280;39936;51.058;17.220;2022-08-11T18:57:53;102241.41;;;19.97;58.81
54022;BME280;39936;51.058;17.220;2022-08-11T19:01:17;102252.07;;;19.84;58.91
54022;BME280;39936;51.058;17.220;2022-08-11T19:05:14;102255.58;;;19.80;59.13
54022;BME280;39936;51.058;17.220;2022-08-11T19:08:40;102259.14;;;19.64;60.69
54022;BME280;39936;51.058;17.220;2022-08-11T19:13:31;102255.29;;;19.52;60.73
54022;BME280;39936;51.058;17.220;2022-08-11T19:21:02;102257.74;;;19.32;62.07
54022;BME280;39936;51.058;17.220;2022-08-11T19:24:29;102257.53;;;19.25;62.16
54022;BME280;39936;51.058;17.220;2022-08-11T19:28:13;102258.62;;;19.13;63.24
54022;BME280;39936;51.058;17.220;2022-08-11T19:35:50;102270.81;;;18.74;65.31
54022;BME280;39936;51.058;17.220;2022-08-11T19:39:18;102282.37;;;18.54;65.46
54022;BME280;39936;51.058;17.220;2022-08-11T19:43:18;102283.79;;;18.42;65.58
54022;BME280;39936;51.058;17.220;2022-08-11T19:46:49;102283.59;;;18.22;66.99
54022;BME280;39936;51.058;17.220;2022-08-11T19:50:51;102283.71;;;18.04;67.31
54022;BME280;39936;51.058;17.220;2022-08-11T19:54:16;102288.70;;;17.93;66.78
54022;BME280;39936;51.058;17.220;2022-08-11T19:57:50;102281.77;;;17.80;68.07
54022;BME280;39936;51.058;17.220;2022-08-11T20:01:13;102293.35;;;17.65;69.56
54022;BME280;39936;51.058;17.220;2022-08-11T20:05:18;102296.87;;;17.49;69.92
54022;BME280;39936;51.058;17.220;2022-08-11T20:08:47;102296.86;;;17.35;68.51
54022;BME280;39936;51.058;17.220;2022-08-11T20:12:37;102290.73;;;17.25;68.01
54022;BME280;39936;51.058;17.220;2022-08-11T20:16:20;102293.80;;;17.10;68.70
54022;BME280;39936;51.058;17.220;2022-08-11T20:19:47;102294.97;;;16.94;69.05
54022;BME280;39936;51.058;17.220;2022-08-11T20:23:43;102297.94;;;16.74;71.72
54022;BME280;39936;51.058;17.220;2022-08-11T20:27:12;102299.21;;;16.55;72.53
54022;BME280;39936;51.058;17.220;2022-08-11T20:31:09;102306.77;;;16.43;74.42
54022;BME280;39936;51.058;17.220;2022-08-11T20:35:04;102311.23;;;16.37;74.60
54022;BME280;39936;51.058;17.220;2022-08-11T20:39:37;102316.02;;;16.31;74.02
54022;BME280;39936;51.058;17.220;2022-08-11T20:43:16;102313.65;;;16.24;73.51
54022;BME280;39936;51.058;17.220;2022-08-11T20:46:43;102313.85;;;16.16;73.34
54022;BME280;39936;51.058;17.220;2022-08-11T20:50:10;102320.26;;;16.04;74.38
54022;BME280;39936;51.058;17.220;2022-08-11T20:53:38;102323.81;;;15.88;74.51
54022;BME280;39936;51.058;17.220;2022-08-11T20:57:04;102321.76;;;15.69;75.46
54022;BME280;39936;51.058;17.220;2022-08-11T21:01:38;102322.05;;;15.46;78.30
54022;BME280;39936;51.058;17.220;2022-08-11T21:09:39;102323.85;;;15.14;79.16
54022;BME280;39936;51.058;17.220;2022-08-11T21:13:03;102316.59;;;15.05;78.62
54022;BME280;39936;51.058;17.220;2022-08-11T21:16:48;102314.58;;;14.97;78.99
54022;BME280;39936;51.058;17.220;2022-08-11T21:20:13;102320.91;;;14.88;79.19
54022;BME280;39936;51.058;17.220;2022-08-11T21:23:39;102322.91;;;14.78;81.75
54022;BME280;39936;51.058;17.220;2022-08-11T21:27:05;102336.87;;;14.57;83.20
54022;BME280;39936;51.058;17.220;2022-08-11T21:31:25;102342.09;;;14.39;85.42
54022;BME280;39936;51.058;17.220;2022-08-11T21:35:41;102342.38;;;14.32;87.31
54022;BME280;39936;51.058;17.220;2022-08-11T21:39:28;102338.93;;;14.35;86.51
54022;BME280;39936;51.058;17.220;2022-08-11T21:44:03;102336.65;;;14.34;85.43
54022;BME280;39936;51.058;17.220;2022-08-11T21:48:34;102339.55;;;14.31;85.23
54022;BME280;39936;51.058;17.220;2022-08-11T21:52:20;102337.71;;;14.24;85.45
54022;BME280;39936;51.058;17.220;2022-08-11T21:55:43;102340.48;;;14.13;85.67
54022;BME280;39936;51.058;17.220;2022-08-11T21:59:44;102344.39;;;14.05;87.68
54022;BME280;39936;51.058;17.220;2022-08-11T22:03:32;102337.02;;;13.98;88.37
54022;BME280;39936;51.058;17.220;2022-08-11T22:07:44;102331.50;;;13.93;88.51
54022;BME280;39936;51.058;17.220;2022-08-11T22:11:39;102329.17;;;13.84;89.96
54022;BME280;39936;51.058;17.220;2022-08-11T22:19:03;102330.02;;;13.71;88.79
54022;BME280;39936;51.058;17.220;2022-08-11T22:22:52;102330.66;;;13.63;88.86
54022;BME280;39936;51.058;17.220;2022-08-11T22:26:39;102332.80;;;13.51;88.72
54022;BME280;39936;51.058;17.220;2022-08-11T22:30:44;102342.36;;;13.42;91.31
54022;BME280;39936;51.058;17.220;2022-08-11T22:34:33;102346.26;;;13.26;95.66
54022;BME280;39936;51.058;17.220;2022-08-11T22:38:36;102340.88;;;13.14;97.02
54022;BME280;39936;51.058;17.220;2022-08-11T22:42:42;102335.38;;;13.15;96.20
54022;BME280;39936;51.058;17.220;2022-08-11T22:50:18;102336.22;;;13.14;95.27
54022;BME280;39936;51.058;17.220;2022-08-11T22:53:42;102330.36;;;13.07;95.63
54022;BME280;39936;51.058;17.220;2022-08-11T22:57:30;102329.27;;;13.02;96.97
54022;BME280;39936;51.058;17.220;2022-08-11T23:01:08;102330.60;;;12.97;97.19
54022;BME280;39936;51.058;17.220;2022-08-11T23:09:29;102336.86;;;12.89;96.30
54022;BME280;39936;51.058;17.220;2022-08-11T23:13:48;102333.38;;;12.83;95.82
54022;BME280;39936;51.058;17.220;2022-08-11T23:17:21;102330.08;;;12.78;96.60
54022;BME280;39936;51.058;17.220;2022-08-11T23:20:48;102327.98;;;12.73;96.45
54022;BME280;39936;51.058;17.220;2022-08-11T23:24:30;102324.71;;;12.67;96.11
54022;BME280;39936;51.058;17.220;2022-08-11T23:28:19;102327.32;;;12.56;99.68
54022;BME280;39936;51.058;17.220;2022-08-11T23:32:16;102329.93;;;12.49;100.00
54022;BME280;39936;51.058;17.220;2022-08-11T23:35:53;102330.80;;;12.48;100.00
54022;BME280;39936;51.058;17.220;2022-08-11T23:39:41;102328.75;;;12.43;100.00
54022;BME280;39936;51.058;17.220;2022-08-11T23:43:49;102323.09;;;12.45;100.00
54022;BME280;39936;51.058;17.220;2022-08-11T23:47:17;102322.12;;;12.39;100.00
54022;BME280;39936;51.058;17.220;2022-08-11T23:50:55;102324.63;;;12.38;100.00
54022;BME280;39936;51.058;17.220;2022-08-11T23:55:08;102329.92;;;12.32;100.00
54022;BME280;39936;51.058;17.220;2022-08-11T23:58:52;102327.25;;;12.31;100.00
